Time;durP1;ratioP1;P1;durP2;ratioP2;P2;SDS_P1;SDS_P2;PMS_P1;PMS_P2;Temp;Humidity;BMP_temperature;BMP_pressure;BME280_temperature;BME280_humidity;BME280_pressure;Samples;Min_cycle;Max_cycle;Signal;HPM_P1;HPM_P2
2023/11/06 00:00:34;;;;;;;3.78;1.58;;;10.10;99.90;;;;;;4974966;28;20082;-76
2023/11/06 00:03:20;;;;;;;6.13;1.70;;;10.10;99.90;;;;;;4977144;28;20038;-76
2023/11/06 00:06:08;;;;;;;8.93;1.80;;;10.20;99.90;;;;;;4989122;28;20485;-77
2023/11/06 00:08:54;;;;;;;6.43;1.80;;;10.10;99.90;;;;;;4967736;28;20459;-76
2023/11/06 00:11:40;;;;;;;5.63;1.77;;;10.10;99.90;;;;;;4965734;28;20704;-76
2023/11/06 00:14:26;;;;;;;5.60;1.90;;;10.10;99.90;;;;;;4976431;28;20459;-76
2023/11/06 00:17:12;;;;;;;4.28;1.70;;;10.10;99.90;;;;;;4976885;28;20046;-76
2023/11/06 00:19:59;;;;;;;5.22;1.65;;;10.10;99.90;;;;;;4984388;28;20049;-76
2023/11/06 00:22:45;;;;;;;8.23;2.00;;;10.10;99.90;;;;;;4964649;28;20038;-77
2023/11/06 00:25:32;;;;;;;7.47;1.75;;;10.10;99.90;;;;;;4965182;28;20513;-76
2023/11/06 00:28:18;;;;;;;4.30;1.92;;;10.10;99.90;;;;;;4978603;28;20511;-76
2023/11/06 00:31:04;;;;;;;7.57;2.03;;;10.00;99.90;;;;;;4955666;28;20042;-76
2023/11/06 00:33:52;;;;;;;5.50;1.95;;;10.10;99.90;;;;;;4953710;28;20103;-76
2023/11/06 00:36:38;;;;;;;;;;;10.10;99.90;;;;;;4987216;28;20117;-77
2023/11/06 00:39:24;;;;;;;6.22;1.75;;;10.10;99.90;;;;;;4958908;28;19916;-76
2023/11/06 00:42:10;;;;;;;7.22;2.83;;;10.10;99.90;;;;;;4978543;28;20476;-77
2023/11/06 00:44:56;;;;;;;4.22;2.00;;;10.10;99.90;;;;;;4948089;28;20757;-76
2023/11/06 00:47:42;;;;;;;5.95;1.50;;;10.10;99.90;;;;;;4978570;28;20038;-76
2023/11/06 00:50:28;;;;;;;4.47;1.67;;;10.10;99.90;;;;;;4978316;28;20046;-76
2023/11/06 00:53:14;;;;;;;4.70;1.50;;;10.10;99.90;;;;;;4955901;28;20046;-76
2023/11/06 00:56:00;;;;;;;8.00;2.03;;;10.10;99.90;;;;;;4964169;28;20050;-76
2023/11/06 00:58:46;;;;;;;7.80;2.20;;;10.10;99.90;;;;;;4979213;28;20074;-76
2023/11/06 01:01:32;;;;;;;4.18;1.40;;;10.10;99.90;;;;;;4975322;28;20498;-76
2023/11/06 01:04:18;;;;;;;5.80;1.60;;;10.10;99.90;;;;;;4983949;28;20125;-76
2023/11/06 01:07:04;;;;;;;5.55;1.77;;;10.10;99.90;;;;;;4978381;28;20069;-76
2023/11/06 01:09:51;;;;;;;6.05;1.50;;;10.10;99.90;;;;;;4974475;28;20057;-76
2023/11/06 01:12:37;;;;;;;11.63;3.20;;;10.10;99.90;;;;;;4973669;28;20042;-77
2023/11/06 01:15:23;;;;;;;6.60;1.83;;;10.10;99.90;;;;;;4981105;28;20415;-76
2023/11/06 01:18:09;;;;;;;7.43;1.55;;;10.20;99.90;;;;;;4959472;28;20043;-76
2023/11/06 01:20:55;;;;;;;6.50;1.40;;;10.20;99.90;;;;;;4958810;28;20050;-77
2023/11/06 01:23:41;;;;;;;6.78;1.90;;;10.10;99.90;;;;;;4981962;28;20745;-76
2023/11/06 01:26:27;;;;;;;4.85;1.40;;;10.20;99.90;;;;;;4968191;28;20042;-76
2023/11/06 01:29:13;;;;;;;5.55;1.50;;;10.10;99.90;;;;;;4955262;28;20034;-76
2023/11/06 01:31:59;;;;;;;6.72;1.67;;;10.10;99.90;;;;;;4963282;28;20042;-76
2023/11/06 01:34:45;;;;;;;8.35;1.67;;;10.10;99.90;;;;;;4995143;28;20038;-76
2023/11/06 01:37:31;;;;;;;5.45;1.70;;;10.10;99.90;;;;;;4967413;28;20490;-76
2023/11/06 01:40:17;;;;;;;7.70;1.92;;;10.10;99.90;;;;;;4968274;28;20046;-76
2023/11/06 01:43:06;;;;;;;4.18;1.40;;;10.10;99.90;;;;;;4947361;28;20535;-76
2023/11/06 01:45:53;;;;;;;6.47;1.48;;;10.10;99.90;;;;;;4968294;28;20129;-76
2023/11/06 01:48:39;;;;;;;6.00;1.33;;;10.10;99.90;;;;;;4981897;28;20097;-76
2023/11/06 01:51:26;;;;;;;5.07;1.15;;;10.10;99.90;;;;;;4968311;28;20034;-76
2023/11/06 01:54:13;;;;;;;14.80;1.70;;;10.10;99.90;;;;;;4983109;28;20057;-76
2023/11/06 01:57:00;;;;;;;3.75;1.13;;;10.10;99.90;;;;;;4996574;28;20046;-76
2023/11/06 01:59:46;;;;;;;4.68;1.30;;;10.20;99.90;;;;;;4959253;28;20104;-77
2023/11/06 02:02:32;;;;;;;7.18;1.08;;;10.20;99.90;;;;;;4968288;28;20034;-76
2023/11/06 02:05:18;;;;;;;5.45;1.08;;;10.20;99.90;;;;;;4960144;28;20042;-76
2023/11/06 02:08:05;;;;;;;2.30;0.73;;;10.20;99.90;;;;;;4968198;28;20035;-76
2023/11/06 02:10:51;;;;;;;4.72;1.30;;;10.20;99.90;;;;;;4982600;28;20053;-76
2023/11/06 02:13:37;;;;;;;6.35;1.10;;;10.30;99.90;;;;;;4996370;28;20051;-76
2023/11/06 02:16:23;;;;;;;6.72;1.30;;;10.30;99.90;;;;;;4981953;28;20061;-76
2023/11/06 02:19:09;;;;;;;6.97;1.30;;;10.30;99.90;;;;;;4966633;28;20624;-76
2023/11/06 02:21:55;;;;;;;6.55;1.40;;;10.30;99.90;;;;;;4983998;28;20550;-76
2023/11/06 02:24:41;;;;;;;4.47;1.45;;;10.30;99.90;;;;;;4969486;28;20060;-77
2023/11/06 02:27:28;;;;;;;6.38;1.80;;;10.30;99.90;;;;;;4981468;28;20096;-76
2023/11/06 02:30:14;;;;;;;5.78;1.27;;;10.30;99.90;;;;;;4968653;28;20045;-76
2023/11/06 02:33:00;;;;;;;7.82;1.10;;;10.30;99.90;;;;;;4980262;28;20050;-76
2023/11/06 02:35:47;;;;;;;3.92;1.55;;;10.40;99.90;;;;;;4980813;28;20030;-76
2023/11/06 02:38:33;;;;;;;8.23;1.27;;;10.40;99.90;;;;;;4981240;28;20046;-77
2023/11/06 02:41:19;;;;;;;5.63;1.50;;;10.40;99.90;;;;;;4980046;28;20046;-77
2023/11/06 02:44:05;;;;;;;8.57;2.15;;;10.40;99.90;;;;;;4981519;28;20047;-76
2023/11/06 02:46:51;;;;;;;5.00;1.58;;;10.40;99.90;;;;;;4983360;28;20341;-77
2023/11/06 02:49:37;;;;;;;5.68;1.92;;;10.40;99.90;;;;;;4936956;28;20066;-76
2023/11/06 02:52:23;;;;;;;7.82;1.75;;;10.50;99.90;;;;;;4979308;28;20050;-76
2023/11/06 02:55:09;;;;;;;9.77;2.40;;;10.50;99.90;;;;;;4962803;28;20456;-77
2023/11/06 02:57:55;;;;;;;5.10;1.20;;;10.50;99.90;;;;;;4982003;28;20046;-76
2023/11/06 03:00:41;;;;;;;8.65;1.80;;;10.50;99.90;;;;;;4966568;28;20133;-77
2023/11/06 03:03:27;;;;;;;5.88;1.20;;;10.50;99.90;;;;;;4964642;28;20038;-76
2023/11/06 03:06:14;;;;;;;10.38;1.75;;;10.50;99.90;;;;;;4978875;28;20465;-76
2023/11/06 03:09:01;;;;;;;8.65;1.77;;;10.60;99.90;;;;;;4961640;28;20050;-76
2023/11/06 03:11:46;;;;;;;6.05;1.30;;;10.50;99.90;;;;;;4970653;28;20049;-76
2023/11/06 03:14:32;;;;;;;14.10;2.03;;;10.60;99.90;;;;;;4966078;28;20471;-77
2023/11/06 03:17:19;;;;;;;6.78;1.90;;;10.60;99.90;;;;;;4973976;28;20084;-77
2023/11/06 03:20:09;;;;;;;8.38;1.73;;;10.60;99.90;;;;;;4928344;28;20059;-76
2023/11/06 03:22:55;;;;;;;3.50;1.15;;;10.50;99.90;;;;;;4948008;28;20035;-76
2023/11/06 03:25:40;;;;;;;7.07;1.52;;;10.60;99.90;;;;;;4961453;28;20419;-77
2023/11/06 03:28:26;;;;;;;5.45;1.25;;;10.60;99.90;;;;;;4943075;29;20053;-76
2023/11/06 03:31:13;;;;;;;5.20;1.70;;;10.60;99.90;;;;;;4937992;29;20514;-77
2023/11/06 03:33:58;;;;;;;9.63;1.20;;;10.60;99.90;;;;;;4948594;28;20070;-76
2023/11/06 03:36:48;;;;;;;10.55;2.30;;;10.60;99.90;;;;;;4942843;28;20043;-76
2023/11/06 03:39:34;;;;;;;7.28;1.85;;;10.50;99.90;;;;;;4963375;28;20101;-75
2023/11/06 03:42:20;;;;;;;6.93;1.40;;;10.50;99.90;;;;;;4960643;28;20554;-76
2023/11/06 03:45:06;;;;;;;5.30;1.20;;;10.50;99.90;;;;;;4937527;29;20039;-76
2023/11/06 03:47:52;;;;;;;7.68;1.23;;;10.50;99.90;;;;;;4936438;28;20039;-76
2023/11/06 03:50:42;;;;;;;6.35;1.30;;;10.50;99.90;;;;;;4972357;28;20057;-77
2023/11/06 03:53:29;;;;;;;6.13;1.38;;;10.40;99.90;;;;;;4947939;28;20081;-76
2023/11/06 03:56:15;;;;;;;6.93;1.30;;;10.40;99.90;;;;;;4944593;28;20043;-76
2023/11/06 03:59:01;;;;;;;6.45;1.27;;;10.40;99.90;;;;;;4921486;29;20051;-76
2023/11/06 04:01:47;;;;;;;4.28;1.48;;;10.40;99.90;;;;;;4950544;28;20479;-76
2023/11/06 04:04:35;;;;;;;4.93;1.42;;;10.40;99.90;;;;;;4973655;28;20031;-76
2023/11/06 04:07:21;;;;;;;8.60;2.00;;;10.30;99.90;;;;;;4974458;28;20770;-77
2023/11/06 04:10:10;;;;;;;7.45;1.27;;;10.30;99.90;;;;;;4961101;28;20097;-76
2023/11/06 04:12:57;;;;;;;7.47;1.83;;;10.30;99.90;;;;;;4945156;28;20077;-76
2023/11/06 04:15:44;;;;;;;9.63;1.42;;;10.30;99.90;;;;;;4948757;28;20045;-76
2023/11/06 04:18:30;;;;;;;4.75;1.33;;;10.30;99.90;;;;;;4960397;28;20053;-76
2023/11/06 04:21:17;;;;;;;6.78;1.52;;;10.30;99.90;;;;;;4936392;29;20054;-77
2023/11/06 04:24:03;;;;;;;7.28;1.40;;;10.30;99.90;;;;;;4937083;29;20050;-77
2023/11/06 04:26:49;;;;;;;6.00;1.40;;;10.30;99.90;;;;;;4946370;28;20129;-76
2023/11/06 04:29:36;;;;;;;6.22;1.50;;;10.30;99.90;;;;;;4953513;28;20544;-77
2023/11/06 04:32:22;;;;;;;7.97;1.27;;;10.30;99.90;;;;;;4972668;28;20061;-76
2023/11/06 04:35:09;;;;;;;5.82;1.40;;;10.20;99.90;;;;;;4933294;28;20038;-76
2023/11/06 04:37:55;;;;;;;8.63;1.40;;;10.20;99.90;;;;;;4932855;28;20403;-76
2023/11/06 04:40:41;;;;;;;5.30;1.20;;;10.20;99.90;;;;;;4942822;28;20051;-76
2023/11/06 04:43:28;;;;;;;7.00;1.23;;;10.30;99.90;;;;;;4936258;28;20121;-76
2023/11/06 04:46:14;;;;;;;6.07;1.75;;;10.20;99.90;;;;;;4979824;28;20340;-76
2023/11/06 04:49:00;;;;;;;4.88;1.40;;;10.20;99.90;;;;;;4940049;28;20034;-76
2023/11/06 04:51:46;;;;;;;6.47;1.38;;;10.20;99.90;;;;;;4983471;28;20046;-76
2023/11/06 04:54:32;;;;;;;7.53;1.48;;;10.20;99.90;;;;;;4965705;28;20069;-76
2023/11/06 04:57:18;;;;;;;7.35;2.17;;;10.20;99.90;;;;;;4946736;29;20051;-76
2023/11/06 05:00:06;;;;;;;3.97;1.40;;;10.30;99.90;;;;;;4948351;28;20039;-76
2023/11/06 05:02:52;;;;;;;8.60;1.83;;;10.20;99.90;;;;;;4940242;28;20444;-76
2023/11/06 05:05:38;;;;;;;6.93;1.65;;;10.20;99.90;;;;;;4964759;28;20045;-76
2023/11/06 05:08:24;;;;;;;4.75;1.25;;;10.20;99.90;;;;;;4994703;28;20546;-76
2023/11/06 05:11:12;;;;;;;5.80;1.17;;;10.20;99.90;;;;;;4936405;29;20047;-76
2023/11/06 05:13:58;;;;;;;8.48;1.40;;;10.20;99.90;;;;;;4972300;28;20152;-76
2023/11/06 05:16:45;;;;;;;2.60;1.10;;;10.30;99.90;;;;;;4944278;28;20371;-76
2023/11/06 05:19:31;;;;;;;8.02;2.20;;;10.20;99.90;;;;;;4970198;28;20042;-76
2023/11/06 05:22:17;;;;;;;8.20;1.40;;;10.20;99.90;;;;;;4961977;28;20078;-76
2023/11/06 05:25:04;;;;;;;5.18;1.30;;;10.20;99.90;;;;;;4953265;28;20116;-76
2023/11/06 05:27:51;;;;;;;6.22;1.80;;;10.20;99.90;;;;;;4980645;28;20038;-76
2023/11/06 05:30:37;;;;;;;4.90;1.20;;;10.20;99.90;;;;;;4963038;28;20081;-76
2023/11/06 05:33:23;;;;;;;4.88;1.45;;;10.20;99.90;;;;;;4953399;28;20054;-76
2023/11/06 05:36:12;;;;;;;6.80;1.60;;;10.10;99.90;;;;;;4959202;28;20047;-76
2023/11/06 05:38:58;;;;;;;4.32;1.23;;;10.20;99.90;;;;;;4956937;28;20551;-76
2023/11/06 05:41:48;;;;;;;3.08;1.02;;;10.10;99.90;;;;;;4922485;28;20075;-76
2023/11/06 05:44:34;;;;;;;10.18;1.35;;;10.10;99.90;;;;;;4954056;28;20046;-76
2023/11/06 05:47:20;;;;;;;4.80;1.27;;;10.10;99.90;;;;;;4954186;28;20039;-76
2023/11/06 05:50:06;;;;;;;7.00;1.50;;;10.10;99.90;;;;;;4958301;28;20054;-76
2023/11/06 05:52:52;;;;;;;4.30;1.42;;;10.00;99.90;;;;;;4938913;28;20486;-76
2023/11/06 05:55:39;;;;;;;4.28;1.10;;;10.00;99.90;;;;;;4963749;28;20826;-76
2023/11/06 05:58:25;;;;;;;3.88;1.10;;;10.00;99.90;;;;;;4967753;28;20490;-76
2023/11/06 06:01:11;;;;;;;3.67;1.00;;;10.10;99.90;;;;;;4964797;28;20050;-76
2023/11/06 06:03:57;;;;;;;3.85;0.88;;;10.10;99.90;;;;;;4935177;28;20102;-76
2023/11/06 06:06:43;;;;;;;3.35;0.82;;;10.10;99.90;;;;;;4968896;28;20129;-76
2023/11/06 06:09:29;;;;;;;4.85;1.30;;;10.10;99.90;;;;;;4950579;28;20093;-76
2023/11/06 06:12:15;;;;;;;3.28;1.10;;;10.10;99.90;;;;;;4969056;28;20038;-76
2023/11/06 06:15:01;;;;;;;2.65;1.00;;;10.10;99.90;;;;;;4979846;28;20082;-76
2023/11/06 06:17:47;;;;;;;3.25;1.00;;;10.10;99.90;;;;;;4950514;28;20100;-76
2023/11/06 06:20:33;;;;;;;2.80;1.00;;;10.00;99.90;;;;;;4955208;28;20134;-76
2023/11/06 06:23:19;;;;;;;5.10;1.00;;;10.10;99.90;;;;;;4996418;28;20030;-76
2023/11/06 06:26:05;;;;;;;7.13;1.10;;;10.00;99.90;;;;;;4995338;28;20042;-76
2023/11/06 06:28:51;;;;;;;2.88;1.00;;;10.00;99.90;;;;;;4965515;28;20045;-76
2023/11/06 06:31:37;;;;;;;2.40;0.90;;;10.00;99.90;;;;;;4977166;28;20046;-76
2023/11/06 06:34:24;;;;;;;6.53;1.13;;;10.00;99.90;;;;;;4957314;28;20576;-76
2023/11/06 06:37:10;;;;;;;4.40;1.08;;;10.00;99.90;;;;;;4949954;28;20101;-76
2023/11/06 06:39:56;;;;;;;3.40;1.00;;;10.00;99.90;;;;;;4968460;28;20042;-76
2023/11/06 06:42:42;;;;;;;3.63;1.23;;;10.00;99.90;;;;;;4947221;28;20047;-76
2023/11/06 06:45:28;;;;;;;7.13;1.20;;;10.00;99.90;;;;;;4972086;28;20038;-76
2023/11/06 06:48:15;;;;;;;4.90;1.35;;;10.00;99.90;;;;;;4975115;28;20046;-76
2023/11/06 06:51:01;;;;;;;4.03;1.20;;;10.10;99.90;;;;;;4953654;28;20042;-77
2023/11/06 06:53:49;;;;;;;6.47;1.50;;;10.10;99.90;;;;;;4968850;28;20093;-76
2023/11/06 06:56:35;;;;;;;5.85;1.23;;;10.10;99.90;;;;;;4960971;28;20042;-77
2023/11/06 06:59:21;;;;;;;2.63;1.10;;;10.10;99.90;;;;;;4970758;28;20053;-76
2023/11/06 07:02:08;;;;;;;4.68;1.52;;;10.10;99.90;;;;;;4987217;28;20435;-76
2023/11/06 07:04:53;;;;;;;5.30;1.40;;;10.20;99.90;;;;;;4963033;28;20038;-76
2023/11/06 07:07:39;;;;;;;2.95;1.00;;;10.10;99.90;;;;;;4958000;28;20125;-76
2023/11/06 07:10:25;;;;;;;5.57;1.85;;;10.10;99.90;;;;;;4960025;28;20423;-76
2023/11/06 07:13:12;;;;;;;7.60;1.88;;;10.10;99.90;;;;;;4975775;28;20045;-76
2023/11/06 07:15:58;;;;;;;4.85;1.33;;;10.20;99.90;;;;;;4963526;28;20515;-76
2023/11/06 07:18:43;;;;;;;6.07;1.30;;;10.20;99.90;;;;;;4965676;28;20038;-76
2023/11/06 07:21:30;;;;;;;6.22;1.85;;;10.20;99.90;;;;;;4974682;28;20100;-75
2023/11/06 07:24:16;;;;;;;6.97;1.75;;;10.20;99.90;;;;;;4950823;28;20038;-76
2023/11/06 07:27:03;;;;;;;4.65;1.80;;;10.10;99.90;;;;;;4959746;28;20112;-75
2023/11/06 07:29:50;;;;;;;3.75;1.55;;;10.10;99.90;;;;;;4985974;28;20050;-76
2023/11/06 07:32:36;;;;;;;8.13;2.38;;;10.10;99.90;;;;;;4958609;28;20108;-75
2023/11/06 07:35:22;;;;;;;7.25;2.03;;;10.10;99.90;;;;;;4978276;28;20098;-76
2023/11/06 07:38:08;;;;;;;8.77;2.30;;;10.10;99.90;;;;;;4963234;28;20638;-76
2023/11/06 07:40:54;;;;;;;5.00;1.90;;;10.10;99.90;;;;;;4972356;28;20088;-77
2023/11/06 07:43:40;;;;;;;8.73;1.70;;;10.10;99.90;;;;;;4970719;28;20093;-75
2023/11/06 07:46:26;;;;;;;6.00;2.03;;;10.10;99.90;;;;;;4961588;28;20046;-75
2023/11/06 07:49:12;;;;;;;6.97;2.10;;;10.10;99.90;;;;;;4961799;28;20156;-78
2023/11/06 07:52:01;;;;;;;6.45;1.70;;;10.10;99.90;;;;;;4960805;28;20136;-77
2023/11/06 07:54:47;;;;;;;5.57;1.70;;;10.10;99.90;;;;;;4972439;28;20038;-77
2023/11/06 07:57:33;;;;;;;5.82;1.88;;;10.20;99.90;;;;;;4974664;28;20042;-77
2023/11/06 08:00:19;;;;;;;4.85;1.80;;;10.20;99.90;;;;;;4970362;28;20053;-77
2023/11/06 08:03:05;;;;;;;4.50;1.77;;;10.20;99.90;;;;;;4961225;28;20070;-77
2023/11/06 08:05:51;;;;;;;5.30;2.30;;;10.30;99.90;;;;;;4968360;28;20042;-76
2023/11/06 08:08:40;;;;;;;3.53;1.42;;;10.40;99.90;;;;;;4987941;28;20058;-77
2023/11/06 08:11:26;;;;;;;6.45;1.40;;;10.40;99.90;;;;;;4988197;28;20046;-76
2023/11/06 08:14:12;;;;;;;5.05;1.60;;;10.50;99.90;;;;;;4970771;28;20042;-77
2023/11/06 08:16:58;;;;;;;5.80;1.50;;;10.50;99.90;;;;;;4987253;28;20244;-77
2023/11/06 08:19:44;;;;;;;10.45;1.60;;;10.60;99.90;;;;;;4977625;28;20046;-76
2023/11/06 08:22:32;;;;;;;5.22;1.58;;;10.60;99.90;;;;;;4972970;28;20125;-77
2023/11/06 08:25:19;;;;;;;4.65;1.40;;;10.60;99.90;;;;;;4949303;28;20112;-77
2023/11/06 08:28:06;;;;;;;6.10;1.60;;;10.60;99.90;;;;;;4970875;28;20148;-77
2023/11/06 08:30:52;;;;;;;10.10;1.60;;;10.70;99.90;;;;;;4986552;28;20049;-76
2023/11/06 08:33:38;;;;;;;5.32;1.30;;;10.70;99.90;;;;;;4970085;28;20153;-76
2023/11/06 08:36:26;;;;;;;3.08;1.20;;;10.70;99.90;;;;;;4968996;28;20077;-76
2023/11/06 08:39:12;;;;;;;4.55;1.15;;;10.70;99.90;;;;;;4952706;28;20057;-76
2023/11/06 08:41:58;;;;;;;7.75;1.52;;;10.70;99.90;;;;;;4957388;28;20136;-76
2023/11/06 08:44:45;;;;;;;6.80;1.42;;;10.80;99.90;;;;;;4958805;28;20471;-76
2023/11/06 08:47:31;;;;;;;5.13;1.17;;;10.70;99.90;;;;;;4954884;28;20042;-76
2023/11/06 08:50:17;;;;;;;6.25;1.10;;;10.70;99.90;;;;;;4957501;28;20395;-76
2023/11/06 08:53:03;;;;;;;3.20;1.33;;;10.70;99.90;;;;;;4976763;28;20133;-76
2023/11/06 08:55:51;;;;;;;5.85;1.45;;;10.70;99.90;;;;;;4977983;28;20529;-76
2023/11/06 08:58:38;;;;;;;3.80;1.15;;;10.80;99.90;;;;;;4987633;28;20053;-77
2023/11/06 09:01:24;;;;;;;4.47;0.95;;;10.80;99.90;;;;;;4963424;28;20050;-76
2023/11/06 09:04:10;;;;;;;4.65;1.10;;;10.80;99.90;;;;;;4957981;28;20081;-76
2023/11/06 09:06:56;;;;;;;7.93;1.35;;;10.90;99.90;;;;;;4968331;28;20092;-76
2023/11/06 09:09:42;;;;;;;5.50;1.00;;;10.90;99.90;;;;;;4959202;28;20070;-76
2023/11/06 09:12:28;;;;;;;4.57;1.25;;;10.90;99.90;;;;;;4961262;28;20069;-76
2023/11/06 09:15:15;;;;;;;5.15;1.33;;;10.90;99.90;;;;;;4957987;28;20092;-76
2023/11/06 09:18:01;;;;;;;3.58;1.20;;;10.90;99.90;;;;;;4970563;28;20038;-77
2023/11/06 09:20:48;;;;;;;3.20;0.85;;;11.00;99.90;;;;;;4959425;28;20042;-77
2023/11/06 09:23:34;;;;;;;4.57;1.10;;;10.90;99.90;;;;;;4982053;28;20463;-76
2023/11/06 09:26:20;;;;;;;2.20;1.15;;;10.90;99.90;;;;;;4974047;28;20184;-77
2023/11/06 09:29:06;;;;;;;6.10;1.20;;;11.00;99.90;;;;;;4938294;28;20431;-77
2023/11/06 09:31:54;;;;;;;4.70;1.30;;;11.00;99.90;;;;;;4975219;28;20471;-77
2023/11/06 09:34:40;;;;;;;5.97;1.05;;;11.00;99.90;;;;;;4973700;28;20042;-76
2023/11/06 09:37:26;;;;;;;6.28;1.40;;;11.10;99.90;;;;;;4963421;28;20583;-76
2023/11/06 09:40:20;;;;;;;5.18;1.10;;;11.10;99.90;;;;;;4963500;28;20526;-77
2023/11/06 09:43:07;;;;;;;5.63;1.52;;;11.10;99.90;;;;;;4949489;28;20059;-77
2023/11/06 09:45:53;;;;;;;3.25;1.10;;;11.00;99.90;;;;;;4964357;28;20052;-76
2023/11/06 09:48:40;;;;;;;3.47;1.30;;;11.00;99.90;;;;;;4986383;28;20503;-77
2023/11/06 09:51:30;;;;;;;5.43;1.92;;;11.00;99.90;;;;;;4963688;28;20045;-77
2023/11/06 09:54:15;;;;;;;4.50;1.20;;;11.00;99.90;;;;;;4966550;28;20057;-77
2023/11/06 09:57:03;;;;;;;5.85;1.10;;;11.00;99.90;;;;;;4969913;28;20566;-76
2023/11/06 09:59:49;;;;;;;3.92;1.30;;;11.00;99.90;;;;;;4963352;28;20054;-77
2023/11/06 10:02:35;;;;;;;7.57;1.20;;;11.10;99.90;;;;;;4975565;28;20157;-76
2023/11/06 10:05:22;;;;;;;3.58;1.42;;;11.00;99.90;;;;;;4971250;28;20149;-76
2023/11/06 10:08:08;;;;;;;8.43;1.30;;;11.10;99.90;;;;;;4975535;28;20077;-76
2023/11/06 10:11:01;;;;;;;7.82;1.45;;;11.10;99.90;;;;;;4962354;28;20046;-76
2023/11/06 10:13:54;;;;;;;6.85;1.27;;;11.10;99.90;;;;;;4980401;28;20422;-76
2023/11/06 10:16:40;;;;;;;6.55;1.85;;;11.10;99.90;;;;;;4976829;28;20038;-76
2023/11/06 10:19:28;;;;;;;5.78;1.60;;;11.10;99.90;;;;;;4976483;28;20486;-76
2023/11/06 10:22:15;;;;;;;6.93;2.42;;;11.10;99.90;;;;;;4977197;28;20483;-76
2023/11/06 10:25:03;;;;;;;9.23;1.98;;;11.10;99.90;;;;;;4989985;28;20073;-76
2023/11/06 10:27:49;;;;;;;6.10;1.57;;;11.20;99.90;;;;;;4952130;28;20484;-77
2023/11/06 10:30:36;;;;;;;6.10;1.70;;;11.20;99.90;;;;;;4973489;28;20297;-77
2023/11/06 10:33:22;;;;;;;10.85;2.20;;;11.20;99.90;;;;;;4963149;28;20495;-77
2023/11/06 10:36:16;;;;;;;8.35;1.63;;;11.30;99.90;;;;;;4976042;28;20042;-75
2023/11/06 10:39:12;;;;;;;11.13;2.05;;;11.30;99.90;;;;;;4963640;28;20061;-75
2023/11/06 10:42:05;;;;;;;10.13;2.15;;;11.30;99.90;;;;;;4959448;28;20050;-75
2023/11/06 10:44:56;;;;;;;9.48;1.80;;;11.50;99.90;;;;;;4980456;28;20455;-75
2023/11/06 10:47:55;;;;;;;5.93;1.45;;;11.60;99.90;;;;;;4976590;28;20038;-75
2023/11/06 10:50:42;;;;;;;9.30;1.80;;;11.70;99.90;;;;;;4950991;28;20133;-75
2023/11/06 10:53:29;;;;;;;8.13;1.80;;;11.90;99.90;;;;;;4974144;28;20046;-75
2023/11/06 10:56:15;;;;;;;10.75;1.77;;;12.10;99.90;;;;;;4973655;28;20100;-75
2023/11/06 10:59:01;;;;;;;4.88;1.52;;;12.10;99.90;;;;;;4951817;28;20112;-75
2023/11/06 11:01:48;;;;;;;9.95;1.83;;;12.10;99.90;;;;;;4967368;28;20102;-75
2023/11/06 11:04:35;;;;;;;6.90;1.60;;;11.90;99.90;;;;;;4962470;28;20046;-75
2023/11/06 11:07:21;;;;;;;10.40;2.38;;;11.90;99.90;;;;;;4972568;28;20285;-75
2023/11/06 11:10:12;;;;;;;10.70;1.95;;;11.90;99.90;;;;;;4961284;28;20543;-75
2023/11/06 11:13:00;;;;;;;11.95;2.05;;;11.90;99.90;;;;;;4960954;28;20046;-75
2023/11/06 11:15:46;;;;;;;10.23;2.00;;;11.90;99.90;;;;;;4959426;28;20375;-74
2023/11/06 11:18:32;;;;;;;7.45;2.05;;;11.90;99.90;;;;;;4975033;28;20053;-74
2023/11/06 11:21:18;;;;;;;9.93;2.65;;;11.80;99.90;;;;;;4963895;28;20058;-74
2023/11/06 11:24:04;;;;;;;8.77;1.95;;;11.80;99.90;;;;;;4971840;28;20065;-74
2023/11/06 11:27:10;;;;;;;7.63;1.90;;;11.90;99.90;;;;;;4959233;28;20596;-74
2023/11/06 11:29:56;;;;;;;10.32;1.95;;;11.90;99.90;;;;;;4969504;28;20502;-74
2023/11/06 11:32:49;;;;;;;9.65;1.77;;;12.00;99.90;;;;;;4976057;28;20375;-74
2023/11/06 11:35:38;;;;;;;5.32;1.25;;;11.90;99.90;;;;;;4967505;28;20063;-73
2023/11/06 11:38:30;;;;;;;7.53;1.63;;;12.00;99.90;;;;;;4975928;28;20057;-74
2023/11/06 11:41:16;;;;;;;9.45;2.55;;;12.00;99.90;;;;;;4961130;28;20125;-73
2023/11/06 11:44:08;;;;;;;5.97;1.58;;;12.00;99.90;;;;;;4944638;28;20085;-75
2023/11/06 11:46:54;;;;;;;9.55;1.73;;;12.00;99.90;;;;;;4973641;28;20042;-74
2023/11/06 11:49:45;;;;;;;7.97;1.70;;;12.00;99.90;;;;;;4977005;28;20092;-75
2023/11/06 11:52:31;;;;;;;8.77;1.50;;;12.40;99.90;;;;;;4971050;28;20070;-75
2023/11/06 11:55:39;;;;;;;7.95;1.48;;;12.60;99.90;;;;;;4990197;28;20042;-74
2023/11/06 11:58:25;;;;;;;;;;;12.50;99.90;;;;;;4972468;28;20045;-74
2023/11/06 12:01:11;;;;;;;7.53;1.38;;;12.70;99.90;;;;;;4975583;28;19972;-75
2023/11/06 12:04:06;;;;;;;7.60;1.50;;;12.60;99.90;;;;;;4957599;28;20074;-75
2023/11/06 12:06:58;;;;;;;9.43;1.55;;;12.60;99.90;;;;;;4974082;28;20030;-74
2023/11/06 12:09:48;;;;;;;8.25;1.77;;;12.70;99.90;;;;;;4981718;28;20042;-74
2023/11/06 12:12:34;;;;;;;6.65;1.73;;;12.60;99.90;;;;;;4960025;28;20038;-74
2023/11/06 12:15:30;;;;;;;11.65;2.30;;;12.60;99.90;;;;;;4962041;28;20045;-73
2023/11/06 12:18:18;;;;;;;8.10;1.60;;;12.70;99.90;;;;;;4969128;28;20071;-74
2023/11/06 12:21:05;;;;;;;6.38;1.55;;;12.80;99.90;;;;;;4973959;28;20050;-75
2023/11/06 12:23:51;;;;;;;7.45;1.60;;;13.20;99.90;;;;;;4979258;28;20061;-74
2023/11/06 12:26:51;;;;;;;8.65;1.45;;;13.30;99.90;;;;;;4960533;28;20118;-74
2023/11/06 12:29:37;;;;;;;7.18;1.75;;;13.30;99.90;;;;;;4966717;28;20042;-80
2023/11/06 12:32:23;;;;;;;7.85;1.63;;;13.20;99.90;;;;;;4962550;28;20050;-75
2023/11/06 12:35:19;;;;;;;6.68;2.17;;;13.10;99.90;;;;;;4977659;28;20133;-75
2023/11/06 12:38:05;;;;;;;6.10;1.73;;;13.00;99.90;;;;;;4966235;28;20070;-75
2023/11/06 12:40:51;;;;;;;9.80;2.08;;;12.80;99.90;;;;;;4935982;28;20480;-75
2023/11/06 12:43:37;;;;;;;9.52;1.50;;;12.70;99.90;;;;;;4961901;28;20050;-75
2023/11/06 12:46:23;;;;;;;8.50;1.40;;;12.70;99.90;;;;;;4982789;28;20079;-74
2023/11/06 12:49:10;;;;;;;10.13;1.48;;;12.60;99.90;;;;;;4954635;28;20114;-75
2023/11/06 12:51:57;;;;;;;6.43;1.35;;;12.70;99.90;;;;;;4967714;28;20250;-74
2023/11/06 12:54:43;;;;;;;8.00;1.42;;;12.70;99.90;;;;;;4959355;28;20061;-75
2023/11/06 12:57:29;;;;;;;7.75;1.40;;;12.70;99.90;;;;;;4980032;28;20046;-74
2023/11/06 13:00:22;;;;;;;10.95;1.60;;;12.60;99.90;;;;;;4968081;28;20475;-75
2023/11/06 13:03:11;;;;;;;8.77;1.50;;;12.60;99.90;;;;;;4966584;28;20515;-74
2023/11/06 13:05:58;;;;;;;7.95;1.45;;;12.60;99.90;;;;;;4971436;28;20069;-74
2023/11/06 13:08:45;;;;;;;8.70;1.60;;;12.60;99.90;;;;;;4966106;28;20051;-74
2023/11/06 13:11:33;;;;;;;8.60;1.63;;;12.60;99.90;;;;;;4963744;28;20048;-75
2023/11/06 13:14:19;;;;;;;11.63;2.45;;;12.70;99.90;;;;;;4959995;28;20274;-75
2023/11/06 13:17:07;;;;;;;5.95;1.70;;;12.70;99.90;;;;;;4978527;28;20039;-75
2023/11/06 13:19:55;;;;;;;;;;;12.60;99.90;;;;;;4994221;28;20038;-75
2023/11/06 13:22:41;;;;;;;;;;;12.70;99.90;;;;;;4998216;28;19914;-74
2023/11/06 13:25:28;;;;;;;5.47;1.40;;;13.00;99.90;;;;;;4979882;28;19969;-75
2023/11/06 13:28:14;;;;;;;6.15;1.40;;;13.20;99.90;;;;;;4961951;28;20034;-74
2023/11/06 13:31:00;;;;;;;4.57;1.10;;;13.10;99.90;;;;;;4968953;28;20042;-75
2023/11/06 13:33:46;;;;;;;8.15;1.63;;;13.10;99.90;;;;;;4968910;28;20049;-75
2023/11/06 13:36:33;;;;;;;8.50;1.48;;;13.00;99.90;;;;;;4983250;28;20038;-75
2023/11/06 13:39:24;;;;;;;7.53;1.30;;;12.90;99.90;;;;;;4957507;28;20057;-75
2023/11/06 13:42:11;;;;;;;8.68;1.75;;;12.80;99.90;;;;;;4963614;28;20050;-74
2023/11/06 13:44:57;;;;;;;7.90;1.80;;;12.70;99.90;;;;;;4982882;28;20428;-75
2023/11/06 13:47:43;;;;;;;9.73;1.90;;;12.70;99.90;;;;;;4957027;28;20085;-74
2023/11/06 13:50:32;;;;;;;9.40;1.58;;;12.60;99.90;;;;;;4971019;28;20414;-74
2023/11/06 13:53:24;;;;;;;5.45;1.50;;;12.50;99.90;;;;;;4984484;28;20034;-75
2023/11/06 13:56:27;;;;;;;10.88;1.75;;;12.50;99.90;;;;;;4984087;28;20050;-75
2023/11/06 13:59:14;;;;;;;7.20;1.40;;;12.40;99.90;;;;;;4986299;28;20129;-74
2023/11/06 14:02:05;;;;;;;6.38;1.35;;;12.30;99.90;;;;;;4979293;28;20042;-74
2023/11/06 14:04:56;;;;;;;8.68;1.48;;;12.30;99.90;;;;;;4991793;28;20456;-74
2023/11/06 14:07:42;;;;;;;8.93;1.50;;;12.20;99.90;;;;;;4967264;28;20038;-75
2023/11/06 14:10:32;;;;;;;7.47;1.92;;;12.20;99.90;;;;;;4950632;28;20047;-74
2023/11/06 14:13:19;;;;;;;10.75;1.88;;;12.20;99.90;;;;;;4966891;28;20039;-74
2023/11/06 14:16:07;;;;;;;6.47;1.52;;;12.20;99.90;;;;;;4956734;28;20084;-74
2023/11/06 14:18:56;;;;;;;8.23;1.73;;;12.20;99.90;;;;;;4950500;28;20528;-74
2023/11/06 14:21:42;;;;;;;10.02;1.40;;;12.20;99.90;;;;;;4960803;28;20054;-75
2023/11/06 14:24:28;;;;;;;7.78;1.52;;;12.20;99.90;;;;;;4953286;28;20038;-74
2023/11/06 14:27:14;;;;;;;5.93;1.55;;;12.10;99.90;;;;;;4951769;28;20042;-74
2023/11/06 14:30:05;;;;;;;8.85;1.50;;;12.20;99.90;;;;;;4972760;28;20053;-75